Time;durP1;ratioP1;P1;durP2;ratioP2;P2;SDS_P1;SDS_P2;PMS_P1;PMS_P2;Temp;Humidity;BMP_temperature;BMP_pressure;BME280_temperature;BME280_humidity;BME280_pressure;Samples;Min_cycle;Max_cycle;Signal;HPM_P1;HPM_P2
2024/01/04 00:02:30;;;;;;;0.40;0.40;;;;;;;6.92;95.64;97978.09;5096389;28;20394;-64
2024/01/04 00:05:00;;;;;;;0.80;0.80;;;;;;;6.93;95.72;98002.63;5095318;28;20098;-64
2024/01/04 00:07:28;;;;;;;0.63;0.63;;;;;;;6.98;95.45;98032.09;5095285;28;20060;-64
2024/01/04 00:09:57;;;;;;;1.60;1.27;;;;;;;7.02;95.62;98043.91;5096531;28;20051;-64
2024/01/04 00:12:27;;;;;;;0.75;0.65;;;;;;;7.09;96.03;98044.66;5095344;28;20292;-64
2024/01/04 00:14:59;;;;;;;0.38;0.38;;;;;;;7.13;96.01;98041.22;5096115;28;20044;-63
2024/01/04 00:17:28;;;;;;;0.47;0.47;;;;;;;7.15;96.04;98029.38;5096799;28;20395;-63
2024/01/04 00:19:58;;;;;;;0.65;0.65;;;;;;;7.18;96.87;98049.59;5096359;28;20044;-63
2024/01/04 00:22:27;;;;;;;0.50;0.50;;;;;;;7.19;97.04;98041.13;5096330;28;20047;-63
2024/01/04 00:24:56;;;;;;;2.70;1.48;;;;;;;7.22;96.41;98036.03;5096227;28;20040;-63
2024/01/04 00:27:25;;;;;;;0.40;0.40;;;;;;;7.24;96.48;98041.91;5095875;28;20501;-63
2024/01/04 00:29:55;;;;;;;0.50;0.50;;;;;;;7.25;96.40;98034.28;5096185;28;20050;-63
2024/01/04 00:32:25;;;;;;;0.80;0.77;;;;;;;7.28;97.07;98025.78;5096160;28;20116;-63
2024/01/04 00:34:55;;;;;;;0.30;0.30;;;;;;;7.32;96.73;98017.25;5096051;28;20052;-64
2024/01/04 00:37:23;;;;;;;0.53;0.53;;;;;;;7.35;96.90;98019.75;5094536;28;20139;-64
2024/01/04 00:39:52;;;;;;;0.80;0.80;;;;;;;7.38;97.08;98007.88;5096025;28;20280;-64
2024/01/04 00:42:21;;;;;;;0.43;0.43;;;;;;;7.37;96.80;98006.19;5094651;28;20036;-65
2024/01/04 00:44:52;;;;;;;0.30;0.30;;;;;;;7.34;96.60;97983.38;5096083;28;20052;-65
2024/01/04 00:47:22;;;;;;;0.68;0.68;;;;;;;7.41;96.86;97981.63;5094555;28;20147;-64
2024/01/04 00:49:51;;;;;;;0.77;0.77;;;;;;;7.42;96.68;97970.59;5094297;28;20402;-65
2024/01/04 00:52:20;;;;;;;2.53;1.20;;;;;;;7.41;96.29;97961.31;5095748;28;20135;-64
2024/01/04 00:54:49;;;;;;;1.07;1.03;;;;;;;7.42;97.18;97962.97;5094199;28;20681;-64
2024/01/04 00:57:17;;;;;;;0.67;0.60;;;;;;;7.50;97.03;97968.78;5095621;28;20490;-64
2024/01/04 00:59:46;;;;;;;11.53;1.23;;;;;;;7.63;96.59;97967.69;5094436;28;20120;-63
2024/01/04 01:02:15;;;;;;;0.40;0.40;;;;;;;7.73;96.28;97968.38;5095267;28;20063;-64
2024/01/04 01:04:45;;;;;;;0.50;0.50;;;;;;;7.71;96.01;97965.88;5095173;28;20284;-64
2024/01/04 01:07:14;;;;;;;1.38;1.10;;;;;;;7.67;94.95;97959.19;5093643;28;20047;-64
2024/01/04 01:09:43;;;;;;;0.65;0.65;;;;;;;7.62;95.44;97958.41;5093827;28;20469;-65
2024/01/04 01:12:12;;;;;;;1.27;1.17;;;;;;;7.59;95.29;97950.84;5095359;28;20071;-65
2024/01/04 01:14:42;;;;;;;0.35;0.35;;;;;;;7.58;94.95;97954.28;5094963;28;20268;-65
2024/01/04 01:17:11;;;;;;;0.50;0.50;;;;;;;7.58;95.40;97954.28;5093999;28;20044;-65
2024/01/04 01:19:40;;;;;;;0.52;0.52;;;;;;;7.59;94.77;97950.84;5094911;28;20497;-64
2024/01/04 01:22:10;;;;;;;2.25;1.15;;;;;;;7.60;95.40;97936.47;5093708;28;20405;-64
2024/01/04 01:24:40;;;;;;;1.88;1.65;;;;;;;7.55;94.36;97939.09;5094893;28;20040;-64
2024/01/04 01:27:09;;;;;;;0.75;0.75;;;;;;;7.51;94.92;97931.53;5094777;28;20040;-64
2024/01/04 01:29:38;;;;;;;0.95;0.95;;;;;;;7.56;95.13;97935.66;5093613;28;20126;-64
2024/01/04 01:32:07;;;;;;;0.30;0.30;;;;;;;7.55;94.65;97939.09;5093814;28;20043;-64
2024/01/04 01:34:36;;;;;;;1.00;0.95;;;;;;;7.53;95.24;97933.19;5093847;28;20040;-65
2024/01/04 01:37:05;;;;;;;0.32;0.32;;;;;;;7.54;94.64;97937.41;5094857;28;20040;-65
2024/01/04 01:39:36;;;;;;;0.30;0.30;;;;;;;7.54;94.98;97926.41;5094821;28;20051;-65
2024/01/04 01:42:05;;;;;;;0.30;0.30;;;;;;;7.51;94.35;97929.81;5094788;28;20048;-65
2024/01/04 01:44:34;;;;;;;0.40;0.40;;;;;;;7.43;94.91;97924.06;5093423;28;20498;-65
2024/01/04 01:47:04;;;;;;;0.40;0.40;;;;;;;7.43;94.46;97927.44;5094616;28;20044;-65
2024/01/04 01:49:33;;;;;;;0.47;0.47;;;;;;;7.39;94.00;97930.03;5094205;28;20047;-64
2024/01/04 01:52:03;;;;;;;0.43;0.43;;;;;;;7.29;94.64;97931.88;5094308;28;20047;-65
2024/01/04 01:54:32;;;;;;;0.40;0.40;;;;;;;7.26;94.20;97937.03;5093043;28;20051;-64
2024/01/04 01:57:02;;;;;;;;;;;;;;;7.26;94.95;97933.63;5094528;28;20051;-64
2024/01/04 01:59:31;;;;;;;0.95;0.95;;;;;;;7.27;94.80;97937.88;5093329;28;19951;-64
2024/01/04 02:02:00;;;;;;;0.23;0.23;;;;;;;7.25;94.68;97934.50;5093313;28;20484;-65
2024/01/04 02:04:29;;;;;;;0.82;0.77;;;;;;;7.22;94.75;97944.69;5094565;28;20131;-64
2024/01/04 02:06:57;;;;;;;0.47;0.47;;;;;;;7.18;94.90;97937.97;5092907;28;20490;-64
2024/01/04 02:09:27;;;;;;;0.40;0.40;;;;;;;7.17;93.93;97947.31;5094055;28;20490;-64
2024/01/04 02:12:05;;;;;;;0.30;0.30;;;;;;;7.25;94.51;97942.09;5094256;28;20465;-64
2024/01/04 02:14:35;;;;;;;0.50;0.50;;;;;;;7.38;94.28;97938.53;5093147;28;20116;-65
2024/01/04 02:17:05;;;;;;;0.77;0.77;;;;;;;7.44;94.38;97925.72;5093946;28;20055;-65
2024/01/04 02:19:34;;;;;;;0.80;0.80;;;;;;;7.51;93.86;97939.16;5092051;28;20040;-65
2024/01/04 02:22:03;;;;;;;0.70;0.65;;;;;;;7.50;94.57;97934.94;5092962;28;20039;-65
2024/01/04 02:24:33;;;;;;;0.30;0.30;;;;;;;7.49;93.00;97934.09;5094110;28;20032;-65
2024/01/04 02:27:02;;;;;;;0.50;0.50;;;;;;;7.48;93.64;97937.50;5092948;28;20287;-65
2024/01/04 02:29:31;;;;;;;0.50;0.50;;;;;;;7.42;93.14;97947.75;5093724;28;20032;-64
2024/01/04 02:32:00;;;;;;;0.38;0.38;;;;;;;7.40;93.55;97949.47;5092896;28;20048;-65
2024/01/04 02:34:29;;;;;;;0.32;0.32;;;;;;;7.39;92.87;97957.94;5093676;28;20063;-64
2024/01/04 02:36:59;;;;;;;0.57;0.57;;;;;;;7.39;93.14;97958.78;5092817;28;20441;-65
2024/01/04 02:39:27;;;;;;;0.32;0.32;;;;;;;7.40;92.88;97972.31;5093756;28;20126;-65
2024/01/04 02:41:58;;;;;;;0.57;0.57;;;;;;;7.41;92.65;97972.28;5092483;28;20048;-64
2024/01/04 02:44:27;;;;;;;1.05;0.93;;;;;;;7.38;92.29;97971.50;5092749;28;20072;-64
2024/01/04 02:46:56;;;;;;;1.10;0.77;;;;;;;7.43;91.50;97977.34;5093579;28;20048;-64
2024/01/04 02:49:25;;;;;;;0.63;0.63;;;;;;;7.44;91.77;97966.31;5093467;28;20498;-63
2024/01/04 02:51:54;;;;;;;0.57;0.57;;;;;;;7.48;92.54;97967.13;5093783;28;20036;-64
2024/01/04 02:54:23;;;;;;;0.50;0.50;;;;;;;7.48;91.97;97962.03;5092703;28;20085;-65
2024/01/04 02:56:52;;;;;;;0.60;0.60;;;;;;;7.46;91.82;97954.47;5093742;28;20296;-65
2024/01/04 02:59:22;;;;;;;0.40;0.40;;;;;;;7.44;91.96;97948.56;5093479;28;20040;-64
2024/01/04 03:01:51;;;;;;;12.40;0.95;;;;;;;7.43;91.99;97949.44;5093755;28;20056;-64
2024/01/04 03:04:20;;;;;;;1.53;1.43;;;;;;;7.40;91.56;97939.31;5093418;28;20508;-64
2024/01/04 03:06:50;;;;;;;0.40;0.40;;;;;;;7.40;91.63;97934.25;5093740;28;20059;-65
2024/01/04 03:09:19;;;;;;;1.20;1.10;;;;;;;7.39;91.55;97930.03;5093609;28;20127;-65
2024/01/04 03:11:48;;;;;;;0.73;0.73;;;;;;;7.36;91.21;97928.41;5093510;28;20153;-65
2024/01/04 03:14:17;;;;;;;0.73;0.73;;;;;;;7.31;92.31;97926.78;5093876;28;20043;-66
2024/01/04 03:16:47;;;;;;;0.35;0.35;;;;;;;7.30;91.89;97927.63;5093653;28;20032;-66
2024/01/04 03:19:16;;;;;;;0.60;0.60;;;;;;;7.31;92.28;97931.88;5093624;28;20067;-66
2024/01/04 03:21:45;;;;;;;0.25;0.25;;;;;;;7.28;91.87;97929.38;5093246;28;20424;-64
2024/01/04 03:24:15;;;;;;;0.40;0.40;;;;;;;7.27;92.18;97932.78;5093593;28;20447;-65
2024/01/04 03:26:43;;;;;;;0.82;0.82;;;;;;;7.26;91.79;97931.09;5093758;28;20454;-65
2024/01/04 03:29:12;;;;;;;0.77;0.77;;;;;;;7.24;91.80;97927.75;5093673;28;20037;-65
2024/01/04 03:31:41;;;;;;;0.40;0.40;;;;;;;7.23;91.70;97931.13;5095576;28;20467;-65
2024/01/04 03:34:11;;;;;;;1.75;1.33;;;;;;;7.21;92.07;97932.88;5097218;28;20046;-65
2024/01/04 03:36:40;;;;;;;0.50;0.50;;;;;;;7.17;91.44;97931.25;5097195;28;20147;-65
2024/01/04 03:39:10;;;;;;;1.20;1.10;;;;;;;7.15;91.94;97938.06;5097160;28;20040;-65
2024/01/04 03:41:39;;;;;;;1.42;0.98;;;;;;;7.00;92.43;97915.44;5097408;28;20086;-65
2024/01/04 03:44:07;;;;;;;1.93;1.40;;;;;;;7.02;92.75;97928.94;5097006;28;20048;-64
2024/01/04 03:46:37;;;;;;;0.35;0.35;;;;;;;7.05;91.82;97944.97;5095566;28;20044;-64
2024/01/04 03:49:06;;;;;;;0.30;0.30;;;;;;;7.03;92.61;97943.31;5097049;28;20059;-64
2024/01/04 03:51:36;;;;;;;0.20;0.20;;;;;;;6.98;92.26;97950.13;5096626;28;20120;-64
2024/01/04 03:54:06;;;;;;;0.30;0.30;;;;;;;6.93;92.52;97946.81;5095677;28;20136;-65
2024/01/04 03:56:34;;;;;;;1.02;1.02;;;;;;;6.88;92.97;97948.59;5096507;28;20058;-64
2024/01/04 03:59:03;;;;;;;0.40;0.40;;;;;;;6.88;93.20;97938.44;5096453;28;20036;-65
2024/01/04 04:01:32;;;;;;;1.50;0.63;;;;;;;6.89;92.75;97935.03;5096412;28;20276;-66
2024/01/04 04:04:01;;;;;;;0.80;0.47;;;;;;;6.86;93.03;97930.03;5095875;28;20285;-64
2024/01/04 04:06:31;;;;;;;1.27;1.17;;;;;;;6.82;92.47;97930.91;5096646;28;20047;-65
2024/01/04 04:09:02;;;;;;;0.47;0.47;;;;;;;6.73;93.20;97929.34;5096310;28;20040;-66
2024/01/04 04:11:31;;;;;;;0.50;0.50;;;;;;;6.64;92.56;97935.41;5096304;28;20032;-66
2024/01/04 04:14:00;;;;;;;0.50;0.50;;;;;;;6.56;93.13;97937.19;5096173;28;20417;-65
2024/01/04 04:16:29;;;;;;;0.30;0.30;;;;;;;6.47;92.59;97927.19;5095321;28;20097;-64
2024/01/04 04:18:58;;;;;;;0.43;0.43;;;;;;;6.39;92.88;97926.44;5096152;28;20406;-64
2024/01/04 04:21:27;;;;;;;0.60;0.60;;;;;;;6.35;92.69;97927.34;5096311;28;20449;-64
2024/01/04 04:23:56;;;;;;;0.47;0.47;;;;;;;6.36;92.39;97934.06;5094773;28;20051;-65
2024/01/04 04:26:26;;;;;;;0.40;0.40;;;;;;;6.32;92.79;97942.56;5095973;28;20050;-65
2024/01/04 04:28:56;;;;;;;1.40;0.93;;;;;;;6.29;92.93;97942.59;5096527;28;20101;-64
2024/01/04 04:31:25;;;;;;;1.80;1.50;;;;;;;6.25;92.81;97956.16;5096063;28;20067;-64
2024/01/04 04:33:54;;;;;;;0.45;0.45;;;;;;;6.24;92.84;97954.47;5096117;28;20043;-64
2024/01/04 04:36:23;;;;;;;0.40;0.40;;;;;;;6.24;92.97;97954.47;5096017;28;20036;-65
2024/01/04 04:38:52;;;;;;;0.97;0.87;;;;;;;6.26;92.61;97942.66;5095998;28;20058;-66
2024/01/04 04:41:21;;;;;;;0.50;0.50;;;;;;;6.26;92.60;97942.66;5095921;28;20076;-66
2024/01/04 04:43:51;;;;;;;1.60;1.50;;;;;;;6.28;93.13;97946.00;5094975;28;20044;-66
2024/01/04 04:46:20;;;;;;;0.80;0.75;;;;;;;6.29;92.94;97942.59;5095842;28;20048;-64
2024/01/04 04:48:54;;;;;;;0.52;0.52;;;;;;;6.29;92.95;97942.59;5095787;28;20032;-66
2024/01/04 04:51:25;;;;;;;0.60;0.60;;;;;;;6.33;93.33;97949.31;5095528;28;20062;-65
2024/01/04 04:53:54;;;;;;;1.33;1.23;;;;;;;6.30;93.14;97944.28;5095468;28;20089;-65
2024/01/04 04:56:23;;;;;;;0.90;0.85;;;;;;;6.32;93.30;97947.63;5094277;28;20524;-65
2024/01/04 04:58:53;;;;;;;0.60;0.60;;;;;;;6.35;92.96;97942.53;5094155;28;20042;-64
2024/01/04 05:01:22;;;;;;;1.58;1.20;;;;;;;6.36;93.33;97946.72;5095612;28;20139;-64
2024/01/04 05:03:51;;;;;;;0.53;0.53;;;;;;;6.37;93.67;97940.81;5095215;28;20094;-64
2024/01/04 05:06:20;;;;;;;1.55;1.08;;;;;;;6.37;92.81;97942.50;5095156;28;20078;-65
2024/01/04 05:08:49;;;;;;;0.43;0.43;;;;;;;6.29;92.96;97941.75;5095403;28;20036;-64
2024/01/04 05:11:18;;;;;;;1.23;1.13;;;;;;;6.36;93.09;97945.91;5095109;28;20036;-64
2024/01/04 05:13:47;;;;;;;0.82;0.82;;;;;;;6.34;93.37;97942.53;5095626;28;20123;-65
2024/01/04 05:16:19;;;;;;;0.40;0.40;;;;;;;6.35;93.32;97942.53;5095199;28;20036;-64
2024/01/04 05:18:48;;;;;;;0.50;0.50;;;;;;;6.32;92.66;97936.66;5095297;28;20097;-64
2024/01/04 05:21:17;;;;;;;0.70;0.70;;;;;;;6.24;93.00;97931.66;5094987;28;20051;-64
2024/01/04 05:23:46;;;;;;;0.52;0.52;;;;;;;6.26;93.28;97942.66;5095178;28;20036;-65
2024/01/04 05:26:21;;;;;;;0.70;0.70;;;;;;;6.24;92.64;97939.25;5094714;28;20050;-65
2024/01/04 05:28:50;;;;;;;1.08;0.98;;;;;;;6.22;92.58;97940.97;5095055;28;20044;-64
2024/01/04 05:31:21;;;;;;;0.38;0.38;;;;;;;6.20;92.65;97950.31;5094840;28;20040;-64
2024/01/04 05:33:50;;;;;;;1.67;1.38;;;;;;;6.19;92.95;97951.13;5095046;28;20097;-64
2024/01/04 05:36:20;;;;;;;0.38;0.38;;;;;;;6.17;92.59;97950.31;5094937;28;20048;-64
2024/01/04 05:38:49;;;;;;;1.25;1.15;;;;;;;6.11;93.03;97942.81;5094805;28;20032;-64
2024/01/04 05:41:18;;;;;;;0.85;0.85;;;;;;;6.08;92.34;97940.31;5094507;28;20076;-64
2024/01/04 05:43:47;;;;;;;0.52;0.52;;;;;;;6.12;92.67;97954.59;5094508;28;20036;-64
2024/01/04 05:46:17;;;;;;;0.70;0.70;;;;;;;6.11;92.47;97952.94;5094813;28;20036;-64
2024/01/04 05:48:47;;;;;;;;;;;;;;;6.12;92.56;97954.59;5095019;28;20040;-64
2024/01/04 05:51:16;;;;;;;0.50;0.50;;;;;;;6.09;92.57;97964.78;5094586;28;20436;-64
2024/01/04 05:53:45;;;;;;;0.98;0.98;;;;;;;6.07;92.21;97967.31;5076257;28;20082;-64
2024/01/04 05:56:14;;;;;;;0.43;0.43;;;;;;;6.09;92.24;97969.84;5094587;28;20081;-65
2024/01/04 05:58:43;;;;;;;0.65;0.65;;;;;;;6.13;92.42;97973.16;5094503;28;20284;-64
2024/01/04 06:01:12;;;;;;;0.30;0.30;;;;;;;6.13;92.05;97971.47;5094158;28;20517;-65
2024/01/04 06:03:40;;;;;;;0.73;0.73;;;;;;;6.14;91.45;97980.78;5093946;28;20143;-66
2024/01/04 06:06:14;;;;;;;0.95;0.95;;;;;;;6.01;91.85;97956.41;5094389;28;20085;-66
2024/01/04 06:08:43;;;;;;;0.65;0.65;;;;;;;5.81;91.66;97932.97;5094101;28;20455;-64
2024/01/04 06:11:12;;;;;;;0.90;0.77;;;;;;;6.15;91.72;97984.97;5094212;28;20044;-64
2024/01/04 06:13:42;;;;;;;0.63;0.63;;;;;;;6.16;91.39;97984.13;5094329;28;20364;-64
2024/01/04 06:16:11;;;;;;;0.77;0.77;;;;;;;6.17;91.56;97990.84;5093922;28;20131;-65
2024/01/04 06:18:40;;;;;;;0.50;0.50;;;;;;;6.12;90.85;97990.06;5094088;28;20089;-64
2024/01/04 06:21:08;;;;;;;0.85;0.85;;;;;;;6.07;90.48;97986.72;5093787;28;20486;-64
2024/01/04 06:23:39;;;;;;;0.30;0.30;;;;;;;6.16;90.86;97996.78;5094148;28;20040;-69
2024/01/04 06:26:08;;;;;;;0.20;0.20;;;;;;;6.17;90.76;97997.63;5093702;28;20111;-71
2024/01/04 06:28:37;;;;;;;0.33;0.33;;;;;;;6.14;90.93;98008.63;5093889;28;20040;-70
2024/01/04 06:31:06;;;;;;;;;;;;;;;6.12;90.50;98005.25;5094009;28;20075;-69
2024/01/04 06:33:35;;;;;;;1.67;0.90;;;;;;;6.07;90.47;97997.69;5093923;28;19926;-69
2024/01/04 06:36:04;;;;;;;4.25;1.13;;;;;;;6.04;90.63;98007.03;5093668;28;20424;-70
2024/01/04 06:38:35;;;;;;;0.75;0.75;;;;;;;6.00;90.60;98010.44;5093955;28;20039;-69
2024/01/04 06:41:07;;;;;;;0.85;0.70;;;;;;;5.96;90.31;98014.69;5093662;28;20055;-69
2024/01/04 06:43:36;;;;;;;1.80;1.60;;;;;;;6.09;90.59;98026.38;5093667;28;20059;-69
2024/01/04 06:46:05;;;;;;;0.53;0.53;;;;;;;6.17;89.91;98022.94;5092408;28;20119;-69
2024/01/04 06:48:34;;;;;;;0.30;0.30;;;;;;;6.21;89.73;98015.31;5093820;28;20032;-69
2024/01/04 06:51:03;;;;;;;0.28;0.28;;;;;;;6.21;89.54;98020.38;5092683;28;20036;-69
2024/01/04 06:53:32;;;;;;;0.43;0.43;;;;;;;6.21;89.55;98025.44;5092534;28;20141;-69
2024/01/04 06:56:01;;;;;;;0.40;0.40;;;;;;;6.21;89.43;98030.50;5093464;28;20402;-69
2024/01/04 06:58:31;;;;;;;0.60;0.60;;;;;;;6.21;89.55;98027.97;5093432;28;20055;-68
2024/01/04 07:01:00;;;;;;;0.40;0.40;;;;;;;6.21;88.50;98030.50;5093443;28;20276;-69
2024/01/04 07:03:30;;;;;;;1.17;1.08;;;;;;;6.21;88.33;98029.66;5092176;28;20048;-69
2024/01/04 07:05:59;;;;;;;0.35;0.35;;;;;;;6.23;88.10;98022.88;5094636;28;20051;-69
2024/01/04 07:08:28;;;;;;;1.50;1.35;;;;;;;6.18;88.28;98024.63;5097751;28;20166;-69
2024/01/04 07:10:57;;;;;;;1.30;1.20;;;;;;;6.26;88.88;98035.53;5097250;28;20047;-69
2024/01/04 07:13:26;;;;;;;0.63;0.63;;;;;;;6.34;88.68;98031.19;5097774;28;20778;-69
2024/01/04 07:15:56;;;;;;;0.32;0.32;;;;;;;6.46;88.34;98026.00;5097535;28;20051;-69
2024/01/04 07:18:25;;;;;;;0.30;0.30;;;;;;;6.53;88.03;98023.38;5110122;28;20478;-69
2024/01/04 07:20:54;;;;;;;0.70;0.70;;;;;;;6.56;87.27;98025.88;5116417;28;20039;-69
2024/01/04 07:23:23;;;;;;;0.28;0.28;;;;;;;6.58;87.32;98038.53;5117493;28;20557;-69
2024/01/04 07:25:51;;;;;;;0.70;0.70;;;;;;;6.57;87.51;98042.78;5117908;28;20036;-69
2024/01/04 07:28:20;;;;;;;0.60;0.60;;;;;;;6.61;87.09;98035.97;5116552;28;20292;-69
2024/01/04 07:30:50;;;;;;;0.30;0.30;;;;;;;6.58;87.74;98020.78;5117729;28;20035;-69
2024/01/04 07:33:23;;;;;;;1.40;1.17;;;;;;;6.66;86.74;98035.06;5117388;28;20042;-69
2024/01/04 07:35:52;;;;;;;0.95;0.95;;;;;;;6.62;87.51;98023.25;5117341;28;20097;-69
2024/01/04 07:38:21;;;;;;;0.70;0.70;;;;;;;6.71;87.12;98028.25;5117588;28;20423;-69
2024/01/04 07:40:50;;;;;;;0.30;0.30;;;;;;;6.75;87.77;98040.00;5117185;28;20280;-69
2024/01/04 07:43:19;;;;;;;0.70;0.70;;;;;;;6.80;87.85;98031.50;5117394;28;20397;-69
2024/01/04 07:45:49;;;;;;;0.50;0.50;;;;;;;6.88;86.94;98039.88;5117368;28;20036;-69
2024/01/04 07:48:18;;;;;;;1.83;1.73;;;;;;;6.93;87.01;98044.03;5117338;28;20043;-69
2024/01/04 07:50:48;;;;;;;0.52;0.52;;;;;;;7.00;87.33;98039.72;5117442;28;20504;-69
2024/01/04 07:53:17;;;;;;;0.30;0.30;;;;;;;7.09;86.42;98039.59;5117518;28;20048;-69
2024/01/04 07:55:46;;;;;;;0.73;0.60;;;;;;;7.12;86.88;98039.53;5116873;28;20118;-69
2024/01/04 07:58:15;;;;;;;2.05;1.85;;;;;;;7.15;86.22;98042.03;5117177;28;20083;-69
2024/01/04 08:00:44;;;;;;;1.30;1.20;;;;;;;7.17;86.00;98053.00;5116878;28;20104;-69
2024/01/04 08:03:13;;;;;;;0.50;0.50;;;;;;;7.21;86.01;98049.56;5116811;28;20039;-69
2024/01/04 08:05:42;;;;;;;0.30;0.30;;;;;;;7.24;86.14;98049.53;5117142;28;20032;-69
2024/01/04 08:08:13;;;;;;;0.43;0.43;;;;;;;7.28;85.28;98056.22;5115567;28;20070;-69
2024/01/04 08:10:42;;;;;;;0.40;0.40;;;;;;;7.28;85.90;98046.06;5117265;28;20497;-69
2024/01/04 08:13:11;;;;;;;1.73;1.27;;;;;;;7.33;85.87;98054.47;5116625;28;20128;-70
2024/01/04 08:15:39;;;;;;;0.70;0.70;;;;;;;7.33;86.13;98051.94;5116684;28;20032;-69
2024/01/04 08:18:08;;;;;;;0.57;0.57;;;;;;;7.32;86.27;98057.84;5115180;27;20054;-70
2024/01/04 08:20:37;;;;;;;0.40;0.40;;;;;;;7.33;85.54;98051.94;5116721;28;20077;-69
2024/01/04 08:23:06;;;;;;;1.10;0.82;;;;;;;7.33;85.53;98057.00;5116651;28;20096;-69
2024/01/04 08:25:36;;;;;;;0.30;0.30;;;;;;;7.35;85.70;98062.88;5116390;28;20043;-70
2024/01/04 08:28:06;;;;;;;0.40;0.40;;;;;;;7.37;85.83;98062.00;5116540;28;20071;-69
2024/01/04 08:30:35;;;;;;;0.30;0.30;;;;;;;7.42;86.34;98064.47;5115288;28;20044;-71
2024/01/04 08:33:05;;;;;;;0.75;0.75;;;;;;;7.32;85.79;98035.84;5116402;28;20040;-69
2024/01/04 08:35:34;;;;;;;0.40;0.40;;;;;;;7.55;87.06;98066.00;5116186;28;20040;-69
2024/01/04 08:38:04;;;;;;;0.57;0.57;;;;;;;7.55;86.13;98055.84;5116183;28;20097;-69
2024/01/04 08:40:32;;;;;;;0.30;0.30;;;;;;;7.65;86.21;98066.69;5115951;28;20051;-69
2024/01/04 08:43:03;;;;;;;0.35;0.35;;;;;;;7.72;86.31;98069.13;5116226;28;20040;-70
2024/01/04 08:45:31;;;;;;;0.38;0.38;;;;;;;7.77;86.58;98069.88;5115813;28;20052;-69
2024/01/04 08:48:00;;;;;;;0.30;0.30;;;;;;;7.78;86.11;98063.94;5116070;28;20053;-69
2024/01/04 08:50:29;;;;;;;0.40;0.40;;;;;;;7.75;85.61;98063.16;5114951;28;20127;-70
2024/01/04 08:52:58;;;;;;;0.40;0.40;;;;;;;7.80;86.85;98072.34;5115345;28;20085;-69
2024/01/04 08:55:27;;;;;;;1.13;1.03;;;;;;;7.82;86.82;98074.91;5115867;28;20044;-69
2024/01/04 08:57:56;;;;;;;0.73;0.55;;;;;;;7.84;86.46;98081.63;5115966;28;20032;-69
2024/01/04 09:00:26;;;;;;;0.68;0.68;;;;;;;7.86;86.16;98082.44;5115638;28;20036;-69
2024/01/04 09:02:56;;;;;;;0.77;0.77;;;;;;;7.88;86.34;98083.25;5115418;28;20513;-69
2024/01/04 09:05:24;;;;;;;;;;;;;;;7.91;86.14;98083.22;5116279;28;20031;-69
2024/01/04 09:07:54;;;;;;;0.40;0.40;;;;;;;7.94;86.85;98079.78;5115705;28;19990;-69
2024/01/04 09:10:24;;;;;;;4.95;1.75;;;;;;;7.98;87.23;98079.69;5115691;28;20047;-69
2024/01/04 09:12:53;;;;;;;0.80;0.80;;;;;;;8.01;86.84;98084.72;5114214;28;20044;-69
2024/01/04 09:15:22;;;;;;;1.23;1.13;;;;;;;8.01;86.25;98077.09;5115567;28;20043;-69
2024/01/04 09:17:54;;;;;;;1.20;1.10;;;;;;;8.03;87.02;98079.63;5115540;28;20043;-70
2024/01/04 09:20:24;;;;;;;0.55;0.55;;;;;;;8.02;87.40;98078.78;5115183;28;20485;-69
2024/01/04 09:22:53;;;;;;;;;;;;;;;8.02;86.74;98078.78;5115617;28;20078;-70
2024/01/04 09:25:22;;;;;;;0.70;0.70;;;;;;;8.02;86.49;98068.63;5115439;28;19919;-70
2024/01/04 09:27:54;;;;;;;0.80;0.80;;;;;;;8.03;87.55;98075.38;5115011;27;20104;-69
2024/01/04 09:30:22;;;;;;;0.52;0.52;;;;;;;8.04;87.83;98077.03;5114835;28;20047;-70
2024/01/04 09:32:53;;;;;;;2.58;2.38;;;;;;;8.06;88.28;98071.97;5115166;28;20071;-69
2024/01/04 09:35:23;;;;;;;1.27;1.05;;;;;;;8.05;88.67;98072.81;5115009;28;20054;-70
2024/01/04 09:37:52;;;;;;;1.05;0.98;;;;;;;8.08;87.94;98073.63;5115103;28;20055;-69
2024/01/04 09:40:21;;;;;;;;;;;;;;;8.10;88.68;98071.88;5115321;28;20047;-70
2024/01/04 09:42:55;;;;;;;0.45;0.45;;;;;;;8.15;89.03;98079.41;5115063;28;20010;-70
2024/01/04 09:45:29;;;;;;;0.60;0.60;;;;;;;8.19;88.46;98086.13;5115099;28;20134;-70
2024/01/04 09:48:10;;;;;;;0.30;0.30;;;;;;;8.22;88.81;98077.59;5114971;28;20067;-69
2024/01/04 09:50:55;;;;;;;0.60;0.60;;;;;;;8.22;88.64;98080.16;5099490;28;20051;-70
2024/01/04 09:53:24;;;;;;;0.40;0.40;;;;;;;8.23;88.64;98076.75;5094337;28;20406;-69
2024/01/04 09:55:53;;;;;;;2.63;1.70;;;;;;;8.26;89.25;98074.13;5094230;28;20043;-70
2024/01/04 09:58:25;;;;;;;1.38;1.27;;;;;;;8.27;88.39;98075.84;5093069;28;20097;-69
2024/01/04 10:00:56;;;;;;;1.45;1.35;;;;;;;8.29;88.91;98071.56;5094208;28;20075;-70
2024/01/04 10:03:26;;;;;;;0.60;0.60;;;;;;;8.34;88.15;98082.50;5093940;28;20542;-69
2024/01/04 10:05:58;;;;;;;6.07;3.03;;;;;;;8.10;89.06;98030.38;5093081;28;20059;-69
2024/01/04 10:08:34;;;;;;;1.00;0.95;;;;;;;8.48;88.59;98080.56;5094181;28;20105;-70
2024/01/04 10:11:14;;;;;;;3.53;1.20;;;;;;;8.53;88.41;98084.69;5075970;28;20044;-69
2024/01/04 10:13:44;;;;;;;0.40;0.40;;;;;;;8.62;87.97;98086.22;5093960;28;20479;-69
2024/01/04 10:16:13;;;;;;;0.22;0.22;;;;;;;8.69;87.87;98088.63;5093950;28;20490;-69
2024/01/04 10:18:44;;;;;;;0.20;0.20;;;;;;;8.75;87.34;98085.13;5093874;28;20495;-70
2024/01/04 10:21:13;;;;;;;0.70;0.70;;;;;;;8.77;86.86;98076.59;5094116;28;20054;-70
2024/01/04 10:23:43;;;;;;;0.33;0.33;;;;;;;8.83;86.00;98083.25;5092867;28;20047;-70
2024/01/04 10:26:13;;;;;;;0.45;0.45;;;;;;;8.96;84.93;98094.88;5092784;28;20346;-69
2024/01/04 10:28:42;;;;;;;0.45;0.45;;;;;;;9.00;85.20;98093.13;5093876;28;20085;-69
2024/01/04 10:31:11;;;;;;;0.32;0.32;;;;;;;9.02;83.92;98102.38;5094147;28;20043;-70
2024/01/04 10:33:42;;;;;;;0.20;0.20;;;;;;;9.06;83.97;98105.72;5093769;28;20034;-69
2024/01/04 10:36:14;;;;;;;0.43;0.43;;;;;;;9.03;83.07;98096.44;5094037;28;20078;-69
2024/01/04 10:38:43;;;;;;;0.20;0.20;;;;;;;9.09;82.47;98098.88;5093644;28;20089;-69
2024/01/04 10:41:12;;;;;;;0.30;0.30;;;;;;;9.14;81.83;98094.50;5091994;28;20036;-69
2024/01/04 10:43:43;;;;;;;3.58;0.93;;;;;;;9.15;82.39;98098.72;5093827;28;20135;-69
2024/01/04 10:46:13;;;;;;;0.22;0.22;;;;;;;9.17;82.00;98098.69;5093828;28;20044;-69
2024/01/04 10:48:42;;;;;;;0.40;0.40;;;;;;;9.18;81.54;98097.84;5093868;28;20048;-69
2024/01/04 10:51:18;;;;;;;0.30;0.30;;;;;;;9.20;81.48;98096.94;5093771;28;20047;-69
2024/01/04 10:53:50;;;;;;;0.57;0.55;;;;;;;9.23;81.63;98099.41;5093710;28;20111;-69
2024/01/04 10:56:19;;;;;;;0.55;0.47;;;;;;;9.26;81.37;98094.25;5093469;28;20060;-69
2024/01/04 10:58:51;;;;;;;0.35;0.35;;;;;;;9.28;81.24;98104.41;5092607;28;20127;-69
2024/01/04 11:01:20;;;;;;;0.50;0.50;;;;;;;9.28;81.22;98095.06;5092458;28;20139;-69
2024/01/04 11:03:49;;;;;;;0.52;0.52;;;;;;;9.32;80.63;98094.13;5093260;28;20059;-69
2024/01/04 11:06:20;;;;;;;0.30;0.30;;;;;;;9.34;81.13;98094.94;5092400;28;20052;-69
2024/01/04 11:08:50;;;;;;;0.30;0.30;;;;;;;9.33;80.56;98079.69;5093563;28;20048;-69
2024/01/04 11:11:19;;;;;;;;;;;;;;;9.38;79.80;98083.00;5093774;28;20498;-69
2024/01/04 11:13:48;;;;;;;0.40;0.40;;;;;;;9.41;79.69;98081.19;5092241;28;19919;-69
2024/01/04 11:16:32;;;;;;;0.30;0.30;;;;;;;9.44;79.76;98083.69;5093559;28;20123;-69
2024/01/04 11:19:10;;;;;;;0.30;0.30;;;;;;;9.48;79.44;98078.53;5093381;28;20040;-69
2024/01/04 11:21:59;;;;;;;0.50;0.50;;;;;;;9.53;79.20;98074.16;5091868;28;20083;-69
2024/01/04 11:24:43;;;;;;;0.38;0.38;;;;;;;9.57;78.96;98060.50;5093529;28;20044;-69
2024/01/04 11:27:17;;;;;;;0.90;0.68;;;;;;;9.53;79.09;98080.09;5093504;28;20097;-69
2024/01/04 11:29:49;;;;;;;0.40;0.40;;;;;;;9.50;80.12;98084.44;5093461;28;20079;-68
2024/01/04 11:32:19;;;;;;;1.33;1.23;;;;;;;9.40;80.63;98089.72;5093513;28;20047;-69
2024/01/04 11:34:49;;;;;;;0.30;0.30;;;;;;;9.28;82.27;98089.97;5093040;28;20042;-67
2024/01/04 11:37:21;;;;;;;0.75;0.65;;;;;;;9.19;82.75;98090.16;5094001;28;20086;-69
2024/01/04 11:40:03;;;;;;;0.30;0.30;;;;;;;9.13;82.96;98089.44;5093293;28;20498;-69
2024/01/04 11:42:34;;;;;;;0.30;0.30;;;;;;;9.06;83.91;98096.38;5093363;28;20039;-68
2024/01/04 11:45:05;;;;;;;0.35;0.35;;;;;;;8.97;85.08;98088.94;5093408;28;20060;-70
2024/01/04 11:47:39;;;;;;;0.65;0.65;;;;;;;8.92;84.96;98093.28;5075669;28;20048;-69
2024/01/04 11:50:16;;;;;;;0.40;0.40;;;;;;;8.90;85.42;98097.53;5093940;28;20086;-69
2024/01/04 11:52:51;;;;;;;0.40;0.40;;;;;;;8.86;85.85;98110.34;5095450;28;20040;-69
2024/01/04 11:55:28;;;;;;;0.38;0.38;;;;;;;8.82;85.91;98113.81;5095244;28;20081;-69
2024/01/04 11:58:05;;;;;;;0.50;0.50;;;;;;;8.78;86.44;98107.97;5096868;28;20113;-73